Terminal Aerodrome Forecast
Issued by NWS

Home | Current Version | Previous Version | Text Only | Print | Product List | Glossary On
Versions: 1 2 3 4 5 6 7 8 9 10 11 12 13 14 15 16 17
000
FTUS46 KLOX 182300 RRA
TAFPRB
TAF
KPRB 182340Z 1900/1924 20015KT P6SM SKC
     FM190300 23010KT P6SM SKC
     FM190600 29007KT P6SM BKN020
     FM190800 VRB03KT P6SM OVC015
     FM191600 VRB03KT P6SM OVC020
     FM191800 VRB03KT P6SM SKC
     FM192200 19009KT P6SM SKC
      AMD NOT SKED=

USA.gov is the U.S. government's official web portal to all federal, state and local government web resources and services.